Time;durP1;ratioP1;P1;durP2;ratioP2;P2;SDS_P1;SDS_P2;PMS_P1;PMS_P2;Temp;Humidity;BMP_temperature;BMP_pressure;BME280_temperature;BME280_humidity;BME280_pressure;Samples;Min_cycle;Max_cycle;Signal;HPM_P1;HPM_P2
2021/01/31 00:00:30;;;;;;;24.40;15.18;;;;;;;-2.01;87.86;100745.66;4971991;28;20492;-57
2021/01/31 00:02:59;;;;;;;27.10;15.80;;;;;;;-2.01;88.00;100755.75;4971820;28;20047;-49
2021/01/31 00:05:26;;;;;;;26.38;16.55;;;;;;;-2.01;88.47;100756.59;4971847;28;20053;-52
2021/01/31 00:07:54;;;;;;;28.13;16.90;;;;;;;-2.01;88.29;100756.59;4972040;28;20053;-51
2021/01/31 00:10:25;;;;;;;23.58;15.20;;;;;;;-2.01;87.99;100756.59;4972103;28;20483;-50
2021/01/31 00:12:53;;;;;;;25.90;15.90;;;;;;;-2.04;88.45;100753.44;4972233;28;20566;-50
2021/01/31 00:15:22;;;;;;;26.92;16.00;;;;;;;-2.06;88.23;100758.28;4971371;28;20400;-55
2021/01/31 00:17:49;;;;;;;22.60;14.07;;;;;;;-2.06;87.91;100766.50;4972391;28;20138;-56
2021/01/31 00:20:18;;;;;;;21.00;13.50;;;;;;;-2.09;88.18;100765.03;4971811;28;20049;-56
2021/01/31 00:22:45;;;;;;;23.45;14.85;;;;;;;-2.09;88.03;100771.34;4970750;28;20097;-50
2021/01/31 00:25:15;;;;;;;20.85;12.85;;;;;;;-2.09;87.94;100771.34;4971885;28;20496;-56
2021/01/31 00:27:42;;;;;;;23.42;14.20;;;;;;;-2.10;88.57;100768.81;4971789;28;20057;-55
2021/01/31 00:30:13;;;;;;;26.77;16.42;;;;;;;-2.12;87.96;100774.50;4971472;28;20051;-56
2021/01/31 00:32:40;;;;;;;22.00;13.65;;;;;;;-2.15;87.91;100771.38;4970992;28;20055;-54
2021/01/31 00:35:08;;;;;;;25.70;16.80;;;;;;;-2.16;88.14;100775.16;4972393;28;20074;-57
2021/01/31 00:37:34;;;;;;;26.60;16.90;;;;;;;-2.18;88.00;100778.09;4971221;28;20131;-59
2021/01/31 00:40:01;;;;;;;23.90;15.32;;;;;;;-2.21;88.28;100777.72;4972123;28;20101;-57
2021/01/31 00:42:28;;;;;;;22.23;14.02;;;;;;;-2.23;88.25;100771.63;4971675;28;20507;-58
2021/01/31 00:44:55;;;;;;;26.42;15.90;;;;;;;-2.24;88.43;100768.06;4971411;28;20050;-52
2021/01/31 00:47:22;;;;;;;29.70;17.75;;;;;;;-2.25;88.49;100779.22;4971911;28;20440;-55
2021/01/31 00:49:51;;;;;;;24.55;14.77;;;;;;;-2.27;88.50;100790.34;4971591;28;20515;-48
2021/01/31 00:52:21;;;;;;;29.02;17.60;;;;;;;-2.28;88.47;100793.31;4963846;28;20500;-54
2021/01/31 00:54:49;;;;;;;24.50;15.65;;;;;;;-2.31;88.20;100788.25;4972457;28;20447;-53
2021/01/31 00:57:19;;;;;;;30.80;17.73;;;;;;;-2.34;88.67;100784.06;4969706;28;20058;-55
2021/01/31 00:59:46;;;;;;;24.77;14.95;;;;;;;-2.36;88.17;100790.81;4970424;28;20082;-55
2021/01/31 01:02:19;;;;;;;25.73;16.77;;;;;;;-2.37;88.26;100784.50;4970255;28;20047;-54
2021/01/31 01:04:49;;;;;;;19.17;12.40;;;;;;;-2.40;88.77;100782.22;4961280;28;20074;-50
2021/01/31 01:07:16;;;;;;;26.98;16.55;;;;;;;-2.41;88.19;100777.81;4971697;28;20082;-55
2021/01/31 01:09:45;;;;;;;27.63;16.77;;;;;;;-2.41;88.15;100779.72;4974782;28;20043;-52
2021/01/31 01:12:12;;;;;;;27.92;16.73;;;;;;;-2.43;88.58;100774.47;4974389;28;20415;-55
2021/01/31 01:14:39;;;;;;;26.65;16.13;;;;;;;-2.46;88.56;100773.00;4971906;28;20154;-56
2021/01/31 01:17:05;;;;;;;26.95;16.73;;;;;;;-2.46;89.00;100767.53;4975134;28;20126;-52
2021/01/31 01:19:33;;;;;;;26.45;16.20;;;;;;;-2.46;88.70;100764.78;4974470;28;20047;-54
2021/01/31 01:22:00;;;;;;;28.60;17.10;;;;;;;-2.48;88.70;100769.63;4975112;28;20509;-49
2021/01/31 01:24:26;;;;;;;25.52;14.95;;;;;;;-2.48;88.43;100772.38;4974842;28;20046;-55
2021/01/31 01:26:53;;;;;;;25.35;15.35;;;;;;;-2.48;88.28;100771.53;4974494;28;20050;-54
2021/01/31 01:29:20;;;;;;;27.30;16.38;;;;;;;-2.48;88.32;100768.78;4974919;28;20051;-51
2021/01/31 01:31:47;;;;;;;25.50;16.02;;;;;;;-2.50;88.78;100765.44;4973631;28;20142;-57
2021/01/31 01:34:14;;;;;;;27.13;16.88;;;;;;;-2.50;88.78;100763.53;4974014;28;20056;-56
2021/01/31 01:36:42;;;;;;;26.67;16.42;;;;;;;-2.51;88.54;100764.59;4974919;28;20137;-54
2021/01/31 01:39:08;;;;;;;29.35;16.58;;;;;;;-2.52;88.88;100759.34;4973849;28;20137;-58
2021/01/31 01:41:37;;;;;;;31.75;18.50;;;;;;;-2.53;88.59;100758.50;4974927;28;20061;-55
2021/01/31 01:44:05;;;;;;;32.03;18.75;;;;;;;-2.54;88.79;100754.09;4973286;28;20051;-54
2021/01/31 01:46:37;;;;;;;32.13;18.20;;;;;;;-2.54;88.51;100754.09;4974229;28;20492;-52
2021/01/31 01:49:11;;;;;;;35.75;19.88;;;;;;;-2.53;88.62;100749.47;4974422;28;20043;-56
2021/01/31 01:51:40;;;;;;;29.45;18.38;;;;;;;-2.54;88.83;100739.59;4974547;28;20129;-57
2021/01/31 01:54:13;;;;;;;24.40;14.15;;;;;;;-2.54;89.06;100729.50;4974135;28;20155;-58
2021/01/31 01:56:44;;;;;;;30.00;18.27;;;;;;;-2.55;88.93;100729.72;4974860;28;20456;-56
2021/01/31 01:59:11;;;;;;;25.08;14.82;;;;;;;-2.54;89.04;100732.25;4974446;28;20058;-55
2021/01/31 02:01:44;;;;;;;33.35;19.15;;;;;;;-2.54;88.86;100732.25;4973937;28;20050;-56
2021/01/31 02:04:11;;;;;;;32.33;19.25;;;;;;;-2.55;89.02;100725.09;4972982;28;20134;-57
2021/01/31 02:06:38;;;;;;;28.45;17.15;;;;;;;-2.55;88.61;100730.56;4974318;28;20034;-56
2021/01/31 02:09:05;;;;;;;25.60;14.73;;;;;;;-2.55;89.10;100733.31;4973707;28;20130;-56
2021/01/31 02:11:33;;;;;;;31.95;17.70;;;;;;;-2.55;88.89;100738.75;4970684;28;20047;-53
2021/01/31 02:14:03;;;;;;;28.70;16.65;;;;;;;-2.55;89.20;100744.22;4974315;28;20057;-57
2021/01/31 02:16:40;;;;;;;30.40;17.02;;;;;;;-2.56;88.77;100748.00;4973276;28;20130;-56
2021/01/31 02:19:31;;;;;;;29.45;16.88;;;;;;;-2.55;88.97;100746.97;4973966;28;20540;-53
2021/01/31 02:22:10;;;;;;;23.60;13.63;;;;;;;-2.56;88.82;100749.91;4970354;28;20385;-53
2021/01/31 02:24:49;;;;;;;30.13;16.80;;;;;;;-2.58;89.26;100746.53;4973713;28;20130;-56
2021/01/31 02:27:58;;;;;;;31.02;17.95;;;;;;;-2.58;89.06;100738.34;4971936;28;20121;-53
2021/01/31 02:31:02;;;;;;;34.47;19.27;;;;;;;-2.60;89.43;100745.94;4963081;28;20047;-57
2021/01/31 02:33:49;;;;;;;30.55;16.98;;;;;;;-2.64;89.30;100751.00;4973709;28;20078;-54
2021/01/31 02:36:26;;;;;;;24.83;13.73;;;;;;;-2.61;88.90;100757.94;4972698;28;20086;-54
2021/01/31 02:39:01;;;;;;;30.88;17.17;;;;;;;-2.62;89.15;100757.09;4972434;28;20063;-55
2021/01/31 02:41:33;;;;;;;28.77;16.88;;;;;;;-2.63;89.42;100758.16;4973324;28;20054;-54
2021/01/31 02:44:05;;;;;;;35.10;18.88;;;;;;;-2.64;89.21;100751.00;4972964;28;20105;-57
2021/01/31 02:46:37;;;;;;;31.90;17.60;;;;;;;-2.66;89.01;100747.66;4973495;28;20480;-55
2021/01/31 02:49:09;;;;;;;36.40;20.83;;;;;;;-2.67;89.36;100742.41;4973835;28;20476;-57
2021/01/31 02:51:44;;;;;;;30.58;17.05;;;;;;;-2.69;89.46;100739.88;4964661;28;20389;-53
2021/01/31 02:54:18;;;;;;;32.25;17.58;;;;;;;-2.69;89.43;100741.78;4973398;28;20388;-55
2021/01/31 02:56:51;;;;;;;33.55;18.33;;;;;;;-2.69;89.50;100741.78;4972548;28;20051;-56
2021/01/31 02:59:24;;;;;;;32.67;17.95;;;;;;;-2.70;89.38;100734.63;4973665;28;20053;-55
2021/01/31 03:01:57;;;;;;;32.15;18.02;;;;;;;-2.70;89.47;100735.47;4973119;28;20445;-55
2021/01/31 03:04:30;;;;;;;23.58;13.05;;;;;;;-2.69;89.37;100739.88;4972930;28;20047;-51
2021/01/31 03:07:04;;;;;;;31.25;17.50;;;;;;;-2.69;89.63;100736.31;4973391;28;20130;-50
2021/01/31 03:09:37;;;;;;;36.20;20.40;;;;;;;-2.70;89.55;100730.00;4973252;28;20130;-54
2021/01/31 03:12:09;;;;;;;34.70;18.63;;;;;;;-2.69;89.35;100739.03;4972736;28;20074;-57
2021/01/31 03:14:39;;;;;;;27.27;14.35;;;;;;;-2.71;89.06;100735.69;4973184;28;20055;-53
2021/01/31 03:17:11;;;;;;;28.80;16.08;;;;;;;-2.72;89.51;100740.31;4972666;28;20047;-51
2021/01/31 03:19:43;;;;;;;36.95;19.67;;;;;;;-2.73;89.42;100741.34;4972881;28;20043;-57
2021/01/31 03:22:15;;;;;;;34.55;18.35;;;;;;;-2.74;89.55;100739.69;4972433;28;20510;-54
2021/01/31 03:24:48;;;;;;;36.03;18.58;;;;;;;-2.76;89.45;100749.97;4972431;28;20053;-53
2021/01/31 03:27:20;;;;;;;24.45;12.98;;;;;;;-2.76;89.09;100752.69;4972520;28;20047;-54
2021/01/31 03:29:46;;;;;;;21.63;12.57;;;;;;;-2.77;89.36;100751.03;4972720;28;20051;-49
2021/01/31 03:32:19;;;;;;;27.45;14.93;;;;;;;-2.77;89.23;100751.88;4972082;28;20059;-55
2021/01/31 03:34:49;;;;;;;;;;;;;;;-2.83;89.42;100749.16;4962968;28;20046;-53
2021/01/31 03:37:16;;;;;;;21.77;11.20;;;;;;;-2.86;89.54;100747.72;4972442;28;19925;-57
2021/01/31 03:39:46;;;;;;;24.65;13.48;;;;;;;-2.83;89.19;100758.19;4972084;28;20055;-57
2021/01/31 03:42:13;;;;;;;34.35;19.45;;;;;;;-2.85;89.67;100754.84;4972191;28;20060;-53
2021/01/31 03:44:43;;;;;;;32.70;17.70;;;;;;;-2.85;89.69;100760.31;4969364;28;20507;-54
2021/01/31 03:47:19;;;;;;;30.75;17.05;;;;;;;-2.86;89.51;100758.63;4972200;28;20483;-55
2021/01/31 03:49:53;;;;;;;35.88;19.02;;;;;;;-2.87;89.26;100767.03;4972248;28;20061;-53
2021/01/31 03:52:20;;;;;;;24.05;13.45;;;;;;;-2.89;89.71;100774.59;4972613;28;20548;-56
2021/01/31 03:54:48;;;;;;;29.65;16.55;;;;;;;-2.89;89.66;100763.66;4971536;28;20118;-54
2021/01/31 03:57:19;;;;;;;30.83;17.38;;;;;;;-2.90;89.52;100773.75;4972642;28;20114;-55
2021/01/31 03:59:51;;;;;;;22.90;12.70;;;;;;;-2.92;89.49;100769.56;4971729;28;20085;-52
2021/01/31 04:02:24;;;;;;;26.38;14.57;;;;;;;-2.94;89.38;100756.13;4972564;28;20082;-58
2021/01/31 04:04:54;;;;;;;23.50;13.80;;;;;;;-2.95;89.60;100762.63;4970198;28;20105;-58
2021/01/31 04:07:28;;;;;;;26.75;14.52;;;;;;;-2.94;89.70;100755.28;4972046;28;20119;-54
2021/01/31 04:09:56;;;;;;;24.65;14.02;;;;;;;-2.96;89.58;100760.94;4971240;28;20117;-50
2021/01/31 04:12:25;;;;;;;34.58;18.40;;;;;;;-2.96;89.48;100754.66;4972838;28;20481;-56
2021/01/31 04:14:55;;;;;;;34.97;18.55;;;;;;;-2.96;89.83;100750.03;4971342;28;20138;-53
2021/01/31 04:17:22;;;;;;;27.38;15.20;;;;;;;-2.97;89.67;100752.97;4972366;28;20451;-52
2021/01/31 04:19:49;;;;;;;33.70;18.38;;;;;;;-2.99;89.80;100747.72;4971689;28;20057;-57
2021/01/31 04:22:17;;;;;;;36.25;19.08;;;;;;;-2.97;89.46;100758.44;4971600;28;20035;-57
2021/01/31 04:24:45;;;;;;;29.30;15.55;;;;;;;-2.97;89.67;100752.97;4971949;28;20093;-51
2021/01/31 04:27:12;;;;;;;34.22;17.40;;;;;;;-2.96;89.65;100750.03;4972027;28;20574;-53
2021/01/31 04:29:39;;;;;;;24.77;13.60;;;;;;;-2.96;90.10;100752.75;4971422;28;20038;-53
2021/01/31 04:32:06;;;;;;;28.70;15.52;;;;;;;-2.96;89.90;100747.28;4971958;28;20133;-58
2021/01/31 04:34:33;;;;;;;26.10;13.68;;;;;;;-2.95;89.49;100756.31;4971720;28;20047;-53
2021/01/31 04:37:00;;;;;;;29.88;16.75;;;;;;;-2.96;89.60;100751.91;4971686;28;20101;-56
2021/01/31 04:39:28;;;;;;;19.92;11.30;;;;;;;-3.00;89.54;100756.16;4972234;28;20125;-51
2021/01/31 04:41:55;;;;;;;28.88;15.70;;;;;;;-3.03;89.79;100751.94;4971964;28;20161;-52
2021/01/31 04:44:22;;;;;;;23.40;12.65;;;;;;;-3.06;89.26;100744.19;4974094;28;20070;-51
2021/01/31 04:46:51;;;;;;;22.42;11.60;;;;;;;-3.07;89.51;100749.84;4975624;28;20049;-50
2021/01/31 04:49:50;;;;;;;26.65;14.23;;;;;;;-3.07;89.64;100749.84;4974973;28;20164;-52
2021/01/31 04:52:47;;;;;;;25.42;13.85;;;;;;;-3.09;89.51;100732.84;4975334;28;20133;-54
2021/01/31 04:55:31;;;;;;;20.02;10.77;;;;;;;-3.12;89.85;100740.41;4974690;28;20149;-56
2021/01/31 04:58:06;;;;;;;28.77;14.85;;;;;;;-3.14;89.63;100741.66;4975253;28;20078;-55
2021/01/31 05:00:36;;;;;;;25.17;14.35;;;;;;;-3.17;89.63;100742.94;4975391;28;20254;-53
2021/01/31 05:03:05;;;;;;;22.45;11.98;;;;;;;-3.20;89.58;100748.81;4975146;28;20057;-52
2021/01/31 05:05:35;;;;;;;24.48;13.40;;;;;;;-3.21;89.51;100759.97;4975023;28;20049;-54
2021/01/31 05:08:05;;;;;;;28.42;15.63;;;;;;;-3.24;89.62;100758.50;4975567;28;20114;-53
2021/01/31 05:10:33;;;;;;;28.25;14.85;;;;;;;-3.28;89.55;100742.75;4974715;28;20074;-53
2021/01/31 05:13:22;;;;;;;28.98;15.57;;;;;;;-3.29;89.37;100747.38;4975377;28;20126;-53
2021/01/31 05:15:59;;;;;;;25.08;13.30;;;;;;;-3.32;89.64;100750.50;4974976;28;20496;-52
2021/01/31 05:18:28;;;;;;;23.77;12.23;;;;;;;-3.32;89.85;100752.41;4975156;28;20138;-54
2021/01/31 05:21:00;;;;;;;24.77;12.98;;;;;;;-3.31;89.96;100746.72;4974643;28;20117;-52
2021/01/31 05:23:33;;;;;;;25.23;12.85;;;;;;;-3.30;89.86;100751.13;4965132;28;20559;-55
2021/01/31 05:26:01;;;;;;;20.92;11.50;;;;;;;-3.29;90.07;100752.81;4974673;28;20061;-52
2021/01/31 05:28:30;;;;;;;26.10;12.93;;;;;;;-3.25;90.09;100750.50;4974909;28;20142;-50
2021/01/31 05:30:58;;;;;;;25.33;12.48;;;;;;;-3.23;90.26;100751.16;4974926;28;20047;-53
2021/01/31 05:33:25;;;;;;;19.02;9.20;;;;;;;-3.22;90.31;100755.56;4974615;28;20081;-53
2021/01/31 05:35:54;;;;;;;28.92;14.45;;;;;;;-3.22;89.93;100756.41;4974735;28;20073;-52
2021/01/31 05:38:35;;;;;;;27.88;14.25;;;;;;;-3.22;89.75;100741.91;4974223;28;20089;-56
2021/01/31 05:41:24;;;;;;;24.40;12.55;;;;;;;-3.25;89.76;100745.91;4974335;28;20093;-52
2021/01/31 05:43:59;;;;;;;22.38;11.45;;;;;;;-3.27;90.14;100745.25;4974833;28;20043;-50
2021/01/31 05:46:37;;;;;;;28.02;15.02;;;;;;;-3.27;90.14;100738.97;4973789;28;20105;-55
2021/01/31 05:49:05;;;;;;;25.33;13.15;;;;;;;-3.27;90.00;100741.69;4974476;28;20049;-54
2021/01/31 05:51:34;;;;;;;30.63;15.43;;;;;;;-3.24;89.96;100742.13;4974267;28;20495;-51
2021/01/31 05:54:17;;;;;;;26.02;14.02;;;;;;;-3.22;90.22;100737.28;4973885;28;20093;-51
2021/01/31 05:56:46;;;;;;;23.65;12.68;;;;;;;-3.20;89.97;100734.34;4973672;28;20081;-54
2021/01/31 05:59:14;;;;;;;26.70;13.57;;;;;;;-3.18;90.31;100734.94;4974404;28;20066;-58
2021/01/31 06:01:52;;;;;;;25.58;12.63;;;;;;;-3.14;90.13;100728.88;4973543;28;20062;-56
2021/01/31 06:04:21;;;;;;;21.05;11.00;;;;;;;-3.13;90.30;100722.34;4970573;28;20078;-53
2021/01/31 06:06:49;;;;;;;31.98;16.02;;;;;;;-3.14;89.95;100731.59;4973757;28;20043;-56
2021/01/31 06:09:20;;;;;;;26.05;13.15;;;;;;;-3.15;90.08;100732.66;4973750;28;20046;-53
2021/01/31 06:11:48;;;;;;;27.63;14.07;;;;;;;-3.14;89.83;100726.13;4974108;28;20078;-55
2021/01/31 06:14:30;;;;;;;28.33;14.88;;;;;;;-3.14;90.25;100717.94;4973228;28;20452;-54
2021/01/31 06:17:04;;;;;;;27.35;14.38;;;;;;;-3.15;90.14;100720.88;4974091;28;20145;-53
2021/01/31 06:19:36;;;;;;;32.92;15.60;;;;;;;-3.15;89.97;100710.81;4973996;28;20053;-56
2021/01/31 06:22:06;;;;;;;25.73;13.52;;;;;;;-3.15;89.90;100716.28;4973587;28;20134;-54
2021/01/31 06:24:44;;;;;;;27.42;12.98;;;;;;;-3.15;89.82;100709.97;4972300;28;20129;-55
2021/01/31 06:27:16;;;;;;;24.58;13.25;;;;;;;-3.18;90.00;100713.97;4973907;28;20141;-54
2021/01/31 06:29:48;;;;;;;23.50;11.63;;;;;;;-3.19;89.80;100708.72;4971465;28;20046;-54
2021/01/31 06:32:18;;;;;;;26.17;13.90;;;;;;;-3.20;89.92;100713.34;4973653;28;20038;-56
2021/01/31 06:34:47;;;;;;;28.85;14.90;;;;;;;-3.21;89.96;100711.69;4973097;28;20046;-55
2021/01/31 06:37:35;;;;;;;28.48;14.30;;;;;;;-3.23;89.81;100716.50;4973709;28;20071;-56
2021/01/31 06:40:16;;;;;;;22.35;12.15;;;;;;;-3.25;89.73;100715.03;4973765;28;20393;-55
2021/01/31 06:42:55;;;;;;;20.98;12.13;;;;;;;-3.24;89.74;100714.00;4973229;28;20083;-56
2021/01/31 06:45:33;;;;;;;21.83;11.13;;;;;;;-3.25;89.94;100715.03;4972748;28;20072;-54
2021/01/31 06:48:22;;;;;;;19.73;9.57;;;;;;;-3.23;90.13;100711.06;4973683;28;20464;-56
2021/01/31 06:51:03;;;;;;;23.52;11.77;;;;;;;-3.23;89.88;100721.13;4972889;28;20050;-55
2021/01/31 06:53:51;;;;;;;20.52;10.88;;;;;;;-3.23;89.96;100718.41;4973140;28;20042;-55
2021/01/31 06:56:45;;;;;;;17.70;9.82;;;;;;;-3.23;90.06;100724.69;4971688;28;20134;-51
2021/01/31 06:59:36;;;;;;;16.05;7.95;;;;;;;-3.23;89.75;100721.97;4973159;28;20074;-54
2021/01/31 07:02:38;;;;;;;17.70;9.20;;;;;;;-3.23;89.92;100721.13;4962375;28;20066;-53
2021/01/31 07:05:16;;;;;;;18.73;9.95;;;;;;;-3.25;89.87;100725.97;4966323;28;20051;-53
2021/01/31 07:08:04;;;;;;;21.55;11.15;;;;;;;-3.25;90.01;100725.97;4972020;28;20134;-51
2021/01/31 07:10:53;;;;;;;20.25;10.80;;;;;;;-3.26;89.97;100730.56;4970719;28;20061;-56
2021/01/31 07:13:36;;;;;;;18.13;9.95;;;;;;;-3.25;89.80;100731.41;4971498;28;20129;-53
2021/01/31 07:16:13;;;;;;;16.35;8.95;;;;;;;-3.26;90.13;100727.84;4971429;28;20094;-54
2021/01/31 07:18:46;;;;;;;14.75;7.40;;;;;;;-3.28;89.59;100735.41;4952561;28;20055;-52
2021/01/31 07:21:18;;;;;;;18.83;9.52;;;;;;;-3.28;89.77;100732.69;4967601;28;20074;-49
2021/01/31 07:23:46;;;;;;;14.98;8.05;;;;;;;-3.28;89.93;100738.13;4952550;29;20390;-52
2021/01/31 07:26:27;;;;;;;19.67;10.32;;;;;;;-3.30;89.78;100729.31;4969788;28;20275;-54
2021/01/31 07:28:59;;;;;;;17.02;9.40;;;;;;;-3.30;89.77;100731.19;4950118;28;20059;-56
2021/01/31 07:31:43;;;;;;;15.38;8.18;;;;;;;-3.31;89.56;100754.06;4970463;28;20051;-54
2021/01/31 07:34:15;;;;;;;17.20;9.25;;;;;;;-3.32;89.68;100747.78;4951460;28;20121;-51
2021/01/31 07:36:59;;;;;;;24.95;13.07;;;;;;;-3.33;90.02;100757.00;4969897;28;20050;-58
2021/01/31 07:39:32;;;;;;;23.48;12.52;;;;;;;-3.34;89.74;100744.41;4951828;28;20082;-54
2021/01/31 07:41:59;;;;;;;23.38;11.50;;;;;;;-3.35;89.75;100748.19;4971278;28;20062;-54
2021/01/31 07:44:30;;;;;;;23.27;11.43;;;;;;;-3.34;89.83;100760.78;4971103;28;20500;-53
2021/01/31 07:46:59;;;;;;;19.52;10.27;;;;;;;-3.30;89.90;100755.75;4970474;28;20051;-53
2021/01/31 07:49:26;;;;;;;17.25;8.93;;;;;;;-3.24;89.94;100760.38;4969347;28;20585;-52
2021/01/31 07:52:09;;;;;;;25.05;12.32;;;;;;;-3.17;89.92;100758.47;4967159;28;20055;-53
2021/01/31 07:54:39;;;;;;;21.05;10.27;;;;;;;-3.13;90.16;100757.84;4971360;28;20465;-52
2021/01/31 07:57:34;;;;;;;23.08;11.35;;;;;;;-3.02;89.98;100756.34;4971643;28;20301;-53
2021/01/31 08:00:10;;;;;;;20.98;8.57;;;;;;;-2.90;90.62;100757.38;4937582;28;20094;-53
2021/01/31 08:02:41;;;;;;;24.15;11.30;;;;;;;-2.81;90.16;100738.88;4969513;28;20412;-50
2021/01/31 08:05:13;;;;;;;21.55;11.73;;;;;;;-2.72;90.43;100737.56;4952387;29;20491;-56
2021/01/31 08:08:01;;;;;;;25.63;13.20;;;;;;;-2.60;89.92;100741.31;4970521;28;20045;-54
2021/01/31 08:10:45;;;;;;;25.20;13.95;;;;;;;-2.48;89.84;100739.59;4952303;28;20460;-53
2021/01/31 08:13:32;;;;;;;28.23;14.57;;;;;;;-2.38;89.93;100730.91;4969188;28;20055;-55
2021/01/31 08:16:00;;;;;;;24.25;12.77;;;;;;;-2.30;90.02;100724.38;4971165;28;20046;-54
2021/01/31 08:18:27;;;;;;;26.08;13.48;;;;;;;-2.19;89.90;100729.13;4972351;28;20058;-56
2021/01/31 08:20:55;;;;;;;24.25;12.45;;;;;;;-2.03;90.21;100725.91;4974650;28;20081;-49
2021/01/31 08:23:55;;;;;;;28.95;14.50;;;;;;;-1.73;90.11;100726.09;4974914;28;20051;-54
2021/01/31 08:26:45;;;;;;;24.42;13.13;;;;;;;-1.33;90.13;100728.50;4974891;28;20045;-52
2021/01/31 08:29:31;;;;;;;24.75;13.07;;;;;;;-1.03;89.55;100723.16;4981393;28;20105;-51
2021/01/31 08:32:15;;;;;;;21.05;11.65;;;;;;;-1.00;88.71;100720.81;4974754;28;20081;-55
2021/01/31 08:35:24;;;;;;;24.80;13.75;;;;;;;-0.95;88.33;100717.38;4973676;28;20460;-58
2021/01/31 08:38:10;;;;;;;26.63;14.55;;;;;;;-0.77;89.38;100715.47;4974764;28;20059;-52
2021/01/31 08:40:38;;;;;;;25.23;12.82;;;;;;;-0.33;89.03;100707.13;4975094;28;20102;-55
2021/01/31 08:43:10;;;;;;;24.65;13.98;;;;;;;0.05;88.80;100704.06;4974337;28;20050;-56
2021/01/31 08:45:43;;;;;;;23.73;13.93;;;;;;;0.55;88.31;100691.66;4974277;28;20043;-54
2021/01/31 08:48:09;;;;;;;;;;;;;;;1.00;87.32;100685.53;4974478;28;20047;-51
2021/01/31 08:50:36;;;;;;;24.58;14.13;;;;;;;1.53;86.46;100681.72;4981402;28;19953;-52
2021/01/31 08:53:05;;;;;;;26.05;15.27;;;;;;;2.46;85.39;100677.63;4974462;28;20078;-55
2021/01/31 08:55:31;;;;;;;27.70;15.40;;;;;;;3.37;82.79;100679.00;4973977;28;20552;-52
2021/01/31 08:58:02;;;;;;;23.25;13.77;;;;;;;4.26;79.86;100687.72;4974449;28;20463;-51
2021/01/31 09:00:31;;;;;;;20.17;13.60;;;;;;;5.15;78.09;100670.44;4974526;28;20177;-53
2021/01/31 09:02:58;;;;;;;20.48;13.20;;;;;;;5.95;74.46;100668.28;4973448;28;20488;-53
2021/01/31 09:05:26;;;;;;;20.45;13.65;;;;;;;6.60;73.71;100659.19;4974775;28;20506;-53
2021/01/31 09:08:03;;;;;;;18.70;12.75;;;;;;;6.90;70.72;100661.13;4972673;28;20420;-56
2021/01/31 09:10:40;;;;;;;18.73;12.93;;;;;;;6.92;72.09;100656.13;4970517;28;20077;-55
2021/01/31 09:13:26;;;;;;;19.23;13.18;;;;;;;7.26;71.22;100661.88;4973953;28;20081;-52
2021/01/31 09:15:53;;;;;;;18.92;12.80;;;;;;;7.36;69.63;100670.19;4972139;28;20129;-53
2021/01/31 09:18:23;;;;;;;18.55;12.57;;;;;;;7.72;68.12;100654.19;4973508;28;20423;-52
2021/01/31 09:20:51;;;;;;;15.77;11.23;;;;;;;8.32;67.15;100643.84;4974221;28;20086;-55
2021/01/31 09:23:26;;;;;;;17.80;11.95;;;;;;;8.87;63.98;100641.69;4973454;28;20455;-52
2021/01/31 09:25:54;;;;;;;17.85;12.68;;;;;;;9.43;62.13;100646.66;4972722;28;20438;-55
2021/01/31 09:28:23;;;;;;;15.18;11.18;;;;;;;10.22;60.73;100651.44;4974144;28;20053;-52
2021/01/31 09:30:56;;;;;;;15.57;11.10;;;;;;;10.69;59.05;100649.59;4972639;28;20571;-52
2021/01/31 09:33:38;;;;;;;14.88;11.07;;;;;;;11.02;56.94;100648.41;4974102;28;20071;-53
2021/01/31 09:36:20;;;;;;;15.10;10.80;;;;;;;11.51;53.15;100646.91;4973137;28;20061;-49
2021/01/31 09:38:48;;;;;;;12.73;10.20;;;;;;;11.70;54.80;100650.44;4973519;28;20485;-50
2021/01/31 09:41:18;;;;;;;13.13;9.85;;;;;;;11.80;52.91;100648.56;4973544;28;20764;-53
2021/01/31 09:43:46;;;;;;;13.77;11.00;;;;;;;12.02;52.45;100649.47;4973648;28;20051;-53
2021/01/31 09:46:15;;;;;;;12.50;10.02;;;;;;;11.98;50.93;100642.88;4970619;28;20047;-51
2021/01/31 09:48:43;;;;;;;14.30;10.82;;;;;;;11.94;50.73;100644.63;4973713;28;20054;-56
2021/01/31 09:51:22;;;;;;;13.82;10.63;;;;;;;11.62;48.79;100639.13;4973038;28;20623;-52
2021/01/31 09:53:50;;;;;;;12.68;9.50;;;;;;;11.20;50.91;100638.31;4954609;29;20467;-59
2021/01/31 09:56:37;;;;;;;14.73;10.93;;;;;;;10.46;48.41;100637.41;4973001;28;20042;-63
2021/01/31 09:59:17;;;;;;;14.18;11.00;;;;;;;10.31;51.56;100632.91;4954029;28;20467;-63
2021/01/31 10:01:45;;;;;;;13.25;10.35;;;;;;;10.37;51.68;100628.09;4971647;28;20054;-63
2021/01/31 10:04:20;;;;;;;13.32;9.98;;;;;;;10.73;50.16;100633.06;4973819;28;20126;-64
2021/01/31 10:06:48;;;;;;;13.82;10.25;;;;;;;10.97;50.71;100629.00;4970252;28;20045;-61
2021/01/31 10:09:28;;;;;;;12.75;10.25;;;;;;;11.42;48.28;100628.38;4973835;28;20546;-61
2021/01/31 10:12:23;;;;;;;12.52;10.05;;;;;;;11.84;43.43;100627.25;4972025;28;20058;-60
2021/01/31 10:14:51;;;;;;;12.88;9.93;;;;;;;12.16;47.88;100626.25;4955382;28;20533;-60
2021/01/31 10:17:20;;;;;;;13.27;10.32;;;;;;;12.02;47.45;100618.69;4973276;28;20143;-60
2021/01/31 10:20:28;;;;;;;10.63;8.38;;;;;;;11.88;44.40;100631.06;4972824;28;20466;-60
2021/01/31 10:22:59;;;;;;;11.02;8.23;;;;;;;11.16;48.46;100620.53;4969821;28;20113;-60
2021/01/31 10:25:27;;;;;;;12.60;9.38;;;;;;;10.73;48.71;100616.31;4973061;28;20038;-59
2021/01/31 10:27:57;;;;;;;11.52;9.10;;;;;;;10.18;49.02;100605.75;4972301;28;20065;-57
2021/01/31 10:30:28;;;;;;;11.18;8.05;;;;;;;9.52;49.90;100608.66;4972674;28;20125;-58
2021/01/31 10:32:55;;;;;;;9.40;7.28;;;;;;;8.95;50.24;100611.28;4972891;28;20054;-54
2021/01/31 10:35:31;;;;;;;10.60;7.78;;;;;;;8.50;50.13;100608.94;4972273;28;20050;-58
2021/01/31 10:38:21;;;;;;;9.65;7.55;;;;;;;8.34;51.52;100616.59;4971168;28;20058;-57
2021/01/31 10:40:48;;;;;;;10.18;7.10;;;;;;;8.64;51.06;100599.63;4971429;28;20057;-56
2021/01/31 10:43:18;;;;;;;9.30;6.65;;;;;;;8.63;49.47;100597.97;4972493;28;20388;-58
2021/01/31 10:45:45;;;;;;;8.90;6.25;;;;;;;8.88;48.96;100604.41;4972719;28;20146;-60
2021/01/31 10:48:12;;;;;;;8.23;6.32;;;;;;;9.11;48.40;100598.03;4971923;28;20050;-58
2021/01/31 10:50:39;;;;;;;8.88;6.45;;;;;;;9.43;47.62;100593.72;4972807;28;20051;-56
2021/01/31 10:53:05;;;;;;;7.22;5.35;;;;;;;9.69;47.57;100592.28;4972367;28;20056;-56
2021/01/31 10:55:32;;;;;;;7.60;5.65;;;;;;;9.64;46.65;100589.53;4971865;28;20085;-55
2021/01/31 10:58:00;;;;;;;8.25;5.82;;;;;;;9.81;45.75;100583.44;4972205;28;20050;-57
2021/01/31 11:00:28;;;;;;;7.38;5.50;;;;;;;10.20;44.98;100586.78;4972404;28;20054;-58
2021/01/31 11:02:55;;;;;;;7.30;5.22;;;;;;;10.42;44.36;100577.78;4970826;28;20066;-56
2021/01/31 11:05:22;;;;;;;7.80;5.63;;;;;;;10.78;43.57;100571.56;4969560;28;20051;-58
2021/01/31 11:07:49;;;;;;;7.45;5.53;;;;;;;11.02;42.69;100570.25;4971821;28;20043;-57
2021/01/31 11:10:17;;;;;;;7.85;5.47;;;;;;;10.27;42.69;100564.09;4971392;28;20061;-55
2021/01/31 11:12:44;;;;;;;8.75;6.00;;;;;;;9.40;44.53;100569.25;4972307;28;20118;-55
2021/01/31 11:15:13;;;;;;;7.03;5.05;;;;;;;8.77;46.05;100555.56;4972088;28;20181;-59
2021/01/31 11:17:41;;;;;;;7.72;5.22;;;;;;;7.90;46.34;100559.09;4971088;28;20062;-57
2021/01/31 11:20:09;;;;;;;8.75;5.20;;;;;;;8.25;45.28;100546.84;4972126;28;20141;-56
2021/01/31 11:22:36;;;;;;;8.75;5.97;;;;;;;8.99;43.67;100544.75;4971358;28;20130;-53
2021/01/31 11:25:04;;;;;;;7.82;5.40;;;;;;;9.48;42.28;100535.19;4971604;28;20042;-56
2021/01/31 11:27:31;;;;;;;8.50;5.90;;;;;;;10.06;41.86;100527.31;4971519;28;20145;-58
2021/01/31 11:29:58;;;;;;;7.28;5.05;;;;;;;10.56;40.70;100530.41;4970608;28;20043;-55
2021/01/31 11:32:24;;;;;;;8.93;5.80;;;;;;;10.84;39.96;100531.25;4971626;28;20051;-58
2021/01/31 11:34:52;;;;;;;7.03;4.75;;;;;;;10.81;38.37;100517.91;4971137;28;20182;-56
2021/01/31 11:37:19;;;;;;;6.90;4.75;;;;;;;10.63;39.59;100517.69;4971196;28;20058;-52
2021/01/31 11:39:46;;;;;;;5.78;4.18;;;;;;;10.60;39.53;100520.25;4971389;28;20054;-60